Time;durP1;ratioP1;P1;durP2;ratioP2;P2;SDS_P1;SDS_P2;PMS_P1;PMS_P2;Temp;Humidity;BMP_temperature;BMP_pressure;BME280_temperature;BME280_humidity;BME280_pressure;Samples;Min_cycle;Max_cycle;Signal;HPM_P1;HPM_P2
2022/05/22 00:01:59;;;;;;;7.85;3.20;;;;;;;16.59;65.70;96050.53;5134575;27;20039;-62
2022/05/22 00:04:25;;;;;;;6.90;3.35;;;;;;;16.53;66.09;96050.00;5134254;27;20024;-64
2022/05/22 00:06:50;;;;;;;6.30;3.45;;;;;;;16.49;66.44;96051.16;5134200;27;20552;-61
2022/05/22 00:09:16;;;;;;;4.05;3.10;;;;;;;16.44;66.64;96047.16;5134182;27;20064;-61
2022/05/22 00:11:43;;;;;;;5.95;3.10;;;;;;;16.32;66.73;96044.44;5134325;27;20042;-62
2022/05/22 00:14:11;;;;;;;4.43;2.92;;;;;;;16.23;67.12;96039.78;5134470;27;20469;-64
2022/05/22 00:16:41;;;;;;;3.40;2.85;;;;;;;16.17;67.22;96039.25;5134091;27;20041;-63
2022/05/22 00:19:07;;;;;;;6.47;3.80;;;;;;;16.10;67.96;96030.06;5134138;27;20466;-64
2022/05/22 00:21:33;;;;;;;5.18;3.30;;;;;;;16.07;67.64;96034.72;5134259;27;20513;-61
2022/05/22 00:23:59;;;;;;;4.95;3.17;;;;;;;16.08;67.88;96033.78;5133013;27;20080;-62
2022/05/22 00:26:24;;;;;;;9.32;3.60;;;;;;;16.10;67.46;96035.34;5134268;27;20034;-63
2022/05/22 00:28:50;;;;;;;6.65;3.92;;;;;;;16.14;67.72;96036.81;5133830;28;20051;-62
2022/05/22 00:31:17;;;;;;;8.88;3.65;;;;;;;16.14;67.57;96034.19;5133815;27;20062;-61
2022/05/22 00:33:43;;;;;;;5.45;3.38;;;;;;;16.28;66.36;96030.59;5134088;27;20023;-63
2022/05/22 00:36:09;;;;;;;6.07;3.53;;;;;;;16.44;66.68;96024.28;5134723;27;20028;-61
2022/05/22 00:38:35;;;;;;;3.78;3.20;;;;;;;16.40;66.52;96026.25;5138453;27;20073;-61
2022/05/22 00:41:02;;;;;;;5.15;3.35;;;;;;;16.45;67.17;96022.44;5138077;27;20034;-64
2022/05/22 00:43:49;;;;;;;3.55;3.25;;;;;;;16.45;66.84;96019.81;5138268;27;20106;-62
2022/05/22 00:46:16;;;;;;;6.22;3.03;;;;;;;16.40;67.21;96012.22;5137552;27;20063;-61
2022/05/22 00:48:48;;;;;;;5.80;3.20;;;;;;;16.44;67.42;96016.34;5138054;27;20469;-63
2022/05/22 00:51:29;;;;;;;6.22;3.10;;;;;;;16.48;67.53;96009.03;5138037;27;20031;-63
2022/05/22 00:54:01;;;;;;;4.28;3.28;;;;;;;16.52;67.51;96002.59;5137981;27;20088;-60
2022/05/22 00:56:34;;;;;;;6.10;3.28;;;;;;;16.53;67.55;96007.75;5137921;27;20041;-61
2022/05/22 00:59:01;;;;;;;4.28;2.90;;;;;;;16.57;67.08;96010.19;5137891;27;20035;-63
2022/05/22 01:01:27;;;;;;;5.35;2.65;;;;;;;16.78;65.21;96006.03;5137782;27;20023;-62
2022/05/22 01:03:55;;;;;;;3.25;2.35;;;;;;;17.25;61.19;96001.88;5137599;27;20023;-62
2022/05/22 01:06:24;;;;;;;9.13;2.40;;;;;;;17.54;60.48;95996.19;5137681;27;20027;-61
2022/05/22 01:08:50;;;;;;;6.15;2.50;;;;;;;18.00;57.62;96001.63;5137666;27;20023;-62
2022/05/22 01:11:21;;;;;;;4.63;2.33;;;;;;;18.38;55.84;95996.97;5137536;27;20019;-62
2022/05/22 01:13:55;;;;;;;5.93;2.50;;;;;;;18.58;55.08;95994.56;5137631;27;20030;-63
2022/05/22 01:16:21;;;;;;;3.75;2.30;;;;;;;18.81;54.84;95995.38;5137547;27;20034;-63
2022/05/22 01:18:53;;;;;;;2.72;1.85;;;;;;;19.10;53.55;95994.00;5137537;27;20023;-64
2022/05/22 01:21:24;;;;;;;10.85;2.78;;;;;;;19.25;52.85;95994.56;5137480;27;20019;-63
2022/05/22 01:23:50;;;;;;;6.80;2.28;;;;;;;19.37;53.20;95996.22;5137351;27;20022;-61
2022/05/22 01:26:17;;;;;;;4.75;2.38;;;;;;;19.51;51.88;95989.75;5137364;27;20027;-63
2022/05/22 01:28:43;;;;;;;4.57;2.58;;;;;;;19.56;51.09;95984.06;5137221;27;20023;-62
2022/05/22 01:31:09;;;;;;;2.90;2.25;;;;;;;19.71;49.56;95987.25;5137084;27;20504;-63
2022/05/22 01:33:37;;;;;;;4.25;2.15;;;;;;;19.83;47.80;95991.53;5137133;27;20026;-64
2022/05/22 01:36:03;;;;;;;3.85;2.17;;;;;;;19.97;48.25;95993.97;5137134;27;20503;-62
2022/05/22 01:38:29;;;;;;;3.13;2.20;;;;;;;20.03;47.30;95994.34;5137343;27;20520;-62
2022/05/22 01:40:55;;;;;;;3.78;2.10;;;;;;;20.04;47.43;95992.50;5135782;27;20119;-63
2022/05/22 01:43:20;;;;;;;7.05;2.22;;;;;;;20.10;47.77;95993.81;5136947;27;20047;-61
2022/05/22 01:45:46;;;;;;;3.65;1.80;;;;;;;20.12;47.73;95998.03;5136987;27;20023;-63
2022/05/22 01:48:12;;;;;;;5.85;2.08;;;;;;;20.12;47.80;95992.72;5136213;27;20019;-63
2022/05/22 01:50:39;;;;;;;3.80;2.40;;;;;;;20.06;48.72;95999.41;5136999;27;20413;-61
2022/05/22 01:53:05;;;;;;;6.60;2.25;;;;;;;20.06;48.35;96001.19;5136954;27;20016;-61
2022/05/22 01:55:31;;;;;;;5.97;1.88;;;;;;;20.00;48.22;95991.06;5136934;27;20354;-62
2022/05/22 01:57:56;;;;;;;4.22;2.10;;;;;;;20.03;48.58;95999.66;5136697;27;20023;-62
2022/05/22 02:00:24;;;;;;;4.55;2.03;;;;;;;19.99;49.73;95997.34;5136629;27;20027;-61
2022/05/22 02:02:50;;;;;;;8.75;2.35;;;;;;;20.00;48.29;95993.72;5136698;27;20465;-60
2022/05/22 02:05:19;;;;;;;5.45;2.05;;;;;;;19.97;48.91;95991.31;5136549;27;20030;-62
2022/05/22 02:08:45;;;;;;;7.75;2.10;;;;;;;19.92;47.91;95986.41;5136606;27;20016;-60
2022/05/22 02:10:40;;;;;;;7.53;2.20;;;;;;;19.94;48.24;95992.44;5127322;27;20038;-62
2022/05/22 02:13:07;;;;;;;8.93;2.03;;;;;;;19.95;49.19;95992.31;5136511;27;20516;-62
2022/05/22 02:15:33;;;;;;;4.45;2.05;;;;;;;19.85;48.40;95987.91;5136502;27;20031;-61
2022/05/22 02:17:59;;;;;;;4.95;2.20;;;;;;;19.88;47.72;95985.84;5136378;27;20102;-64
2022/05/22 02:20:25;;;;;;;5.60;2.10;;;;;;;19.97;47.63;95978.06;5136195;27;20476;-63
2022/05/22 02:22:55;;;;;;;2.47;1.98;;;;;;;19.93;48.38;95977.50;5136373;27;20019;-62
2022/05/22 02:25:28;;;;;;;2.88;2.05;;;;;;;19.90;47.35;95977.75;5136285;27;20404;-63
2022/05/22 02:27:54;;;;;;;11.80;2.58;;;;;;;19.90;47.51;95970.59;5136285;27;20116;-63
2022/05/22 02:30:24;;;;;;;5.32;1.90;;;;;;;19.89;48.06;95968.94;5135895;27;20374;-63
2022/05/22 02:32:49;;;;;;;5.82;2.20;;;;;;;19.85;47.84;95964.88;5136008;27;20027;-64
2022/05/22 02:35:15;;;;;;;5.70;2.00;;;;;;;19.88;47.45;95966.41;5136097;27;20031;-62
2022/05/22 02:37:47;;;;;;;2.50;2.10;;;;;;;19.90;47.72;95969.78;5136023;27;20418;-61
2022/05/22 02:40:13;;;;;;;3.72;2.42;;;;;;;19.83;48.12;95966.81;5135940;27;20026;-62
2022/05/22 02:42:40;;;;;;;2.38;1.80;;;;;;;19.84;47.79;95963.19;5135839;27;20080;-62
2022/05/22 02:45:07;;;;;;;4.75;2.15;;;;;;;19.82;48.33;95962.47;5135912;27;20072;-60
2022/05/22 02:47:34;;;;;;;9.88;1.98;;;;;;;19.73;47.76;95953.47;5135826;27;20023;-61
2022/05/22 02:50:01;;;;;;;7.53;2.28;;;;;;;19.73;48.52;95963.25;5136021;27;20537;-62
2022/05/22 02:52:26;;;;;;;7.05;2.58;;;;;;;19.67;48.50;95967.25;5135714;27;20035;-64
2022/05/22 02:54:52;;;;;;;2.95;1.95;;;;;;;19.54;49.68;95965.63;5135593;27;20056;-63
2022/05/22 02:57:21;;;;;;;4.90;1.98;;;;;;;19.45;49.00;95967.25;5135655;27;20063;-63
2022/05/22 02:59:49;;;;;;;2.78;1.77;;;;;;;19.31;49.82;95967.56;5134356;27;20476;-62
2022/05/22 03:02:16;;;;;;;10.07;2.25;;;;;;;19.22;50.25;95970.97;5135537;27;20540;-64
2022/05/22 03:04:42;;;;;;;5.80;2.28;;;;;;;19.16;50.14;95970.50;5135565;27;20468;-62
2022/05/22 03:07:09;;;;;;;9.65;2.13;;;;;;;19.05;51.92;95957.25;5135303;27;20023;-63
2022/05/22 03:09:41;;;;;;;4.20;2.30;;;;;;;18.96;52.21;95969.44;5135248;27;20072;-61
2022/05/22 03:12:13;;;;;;;2.72;2.38;;;;;;;18.80;53.59;95964.56;5135296;27;20419;-64
2022/05/22 03:14:46;;;;;;;8.40;2.50;;;;;;;18.59;53.32;95972.41;5135334;27;20392;-61
2022/05/22 03:17:11;;;;;;;1.92;1.73;;;;;;;18.58;53.20;95976.88;5135223;27;20019;-61
2022/05/22 03:19:37;;;;;;;3.08;1.90;;;;;;;18.57;53.48;95964.56;5135072;27;20067;-62
2022/05/22 03:22:04;;;;;;;5.03;1.70;;;;;;;18.49;53.44;95972.31;5134943;27;20027;-63
2022/05/22 03:24:30;;;;;;;2.90;2.10;;;;;;;18.44;53.69;95962.94;5135112;27;20022;-61
2022/05/22 03:26:55;;;;;;;6.07;1.90;;;;;;;18.36;55.88;95975.91;5135056;27;20372;-63
2022/05/22 03:29:21;;;;;;;3.55;1.92;;;;;;;18.23;53.70;95968.09;5135120;27;20129;-63
2022/05/22 03:31:47;;;;;;;3.35;1.95;;;;;;;18.25;53.60;95974.13;5134837;27;20388;-64
2022/05/22 03:34:13;;;;;;;3.53;1.88;;;;;;;18.22;54.28;95965.56;5134903;27;20027;-63
2022/05/22 03:36:41;;;;;;;4.95;2.00;;;;;;;18.11;53.11;95961.97;5135030;27;20021;-62
2022/05/22 03:39:07;;;;;;;5.40;2.10;;;;;;;18.10;55.75;95962.06;5134847;27;20020;-61
2022/05/22 03:41:37;;;;;;;3.47;1.85;;;;;;;18.08;54.66;95966.59;5134811;27;20080;-63
2022/05/22 03:44:05;;;;;;;5.35;1.70;;;;;;;18.03;55.05;95970.47;5134660;27;20476;-61
2022/05/22 03:46:32;;;;;;;3.22;1.95;;;;;;;18.15;55.52;95967.88;5134583;27;20498;-64
2022/05/22 03:48:58;;;;;;;5.95;1.63;;;;;;;18.29;52.26;95972.91;5134506;27;20065;-63
2022/05/22 03:51:24;;;;;;;7.10;2.00;;;;;;;18.41;53.79;95970.25;5134527;27;20503;-63
2022/05/22 03:53:50;;;;;;;8.65;1.88;;;;;;;18.47;53.95;95960.97;5134661;27;20068;-63
2022/05/22 03:56:17;;;;;;;2.80;2.10;;;;;;;18.59;49.95;95965.31;5134541;27;20027;-63
2022/05/22 03:58:43;;;;;;;3.17;1.75;;;;;;;18.84;49.04;95965.16;5134436;27;20015;-63
2022/05/22 04:01:09;;;;;;;8.55;1.80;;;;;;;19.09;50.30;95976.44;5134362;27;20031;-63
2022/05/22 04:03:35;;;;;;;5.68;1.42;;;;;;;19.27;48.29;95974.91;5134390;27;20050;-63
2022/05/22 04:06:03;;;;;;;10.98;1.55;;;;;;;19.40;49.46;95977.41;5134330;27;20038;-62
2022/05/22 04:08:30;;;;;;;4.10;1.67;;;;;;;19.51;48.50;95987.09;5134240;27;20027;-62
2022/05/22 04:10:56;;;;;;;2.88;1.50;;;;;;;19.62;47.16;95983.56;5133903;27;20031;-63
2022/05/22 04:13:23;;;;;;;7.80;2.25;;;;;;;19.74;46.66;95991.47;5134194;27;20493;-63
2022/05/22 04:15:49;;;;;;;6.97;1.50;;;;;;;19.82;45.86;95997.81;5134527;27;20120;-61
2022/05/22 04:18:14;;;;;;;3.17;2.08;;;;;;;19.94;46.05;96011.00;5134270;27;20106;-62
2022/05/22 04:20:40;;;;;;;5.70;1.45;;;;;;;20.02;46.02;96005.91;5129510;27;20027;-64
2022/05/22 04:25:58;;;;;;;3.55;1.90;;;;;;;20.16;43.85;95999.44;5114019;28;20085;-63
2022/05/22 04:28:27;;;;;;;5.50;1.77;;;;;;;20.26;44.96;95999.47;5113618;28;20369;-64
2022/05/22 04:30:52;;;;;;;7.20;1.83;;;;;;;20.40;45.96;96000.94;5113282;28;20405;-63
2022/05/22 04:33:19;;;;;;;2.88;1.60;;;;;;;20.46;44.49;96004.88;5113503;28;20047;-63
2022/05/22 04:35:45;;;;;;;5.22;1.77;;;;;;;20.56;45.71;96000.44;5113465;28;20102;-62
2022/05/22 04:38:11;;;;;;;4.05;1.73;;;;;;;20.61;46.13;96000.03;5113500;28;20020;-62
2022/05/22 04:40:41;;;;;;;2.72;1.67;;;;;;;20.67;48.53;95999.50;5113354;28;20024;-62
2022/05/22 04:43:09;;;;;;;7.55;1.70;;;;;;;20.82;50.25;96002.63;5113543;28;20078;-61
2022/05/22 04:45:38;;;;;;;5.05;1.67;;;;;;;20.84;47.23;95989.22;5113390;28;20027;-63
2022/05/22 04:48:06;;;;;;;4.90;1.80;;;;;;;20.99;49.32;95995.00;5113368;28;20035;-61
2022/05/22 04:50:33;;;;;;;4.85;1.60;;;;;;;21.59;45.42;95988.72;5113246;28;20012;-62
2022/05/22 04:53:00;;;;;;;4.85;1.75;;;;;;;22.14;47.66;95997.09;5113521;28;20441;-60
2022/05/22 04:55:26;;;;;;;4.88;1.67;;;;;;;22.67;47.67;95996.66;5113503;28;20058;-61
2022/05/22 04:57:52;;;;;;;9.60;1.77;;;;;;;22.88;47.65;95999.09;5113247;28;20024;-62
2022/05/22 05:00:18;;;;;;;7.75;1.40;;;;;;;22.92;41.77;95997.78;5113176;28;20035;-63
2022/05/22 05:02:44;;;;;;;2.38;1.40;;;;;;;22.90;45.08;96007.75;5113283;28;20020;-63
2022/05/22 05:05:10;;;;;;;3.40;1.45;;;;;;;22.76;42.31;96000.25;5113262;28;20020;-63
2022/05/22 05:07:40;;;;;;;4.35;1.52;;;;;;;22.75;42.02;96003.94;5113279;28;20032;-64
2022/05/22 05:10:09;;;;;;;3.70;2.00;;;;;;;22.68;42.58;96011.66;5113202;28;20028;-62
2022/05/22 05:12:38;;;;;;;2.63;1.73;;;;;;;22.58;41.35;96006.38;5113157;28;20110;-61
2022/05/22 05:15:06;;;;;;;6.97;1.52;;;;;;;22.50;41.08;96008.88;5113036;28;20098;-63
2022/05/22 05:17:33;;;;;;;2.97;1.65;;;;;;;22.50;38.59;96001.75;5113056;28;20027;-61
2022/05/22 05:19:59;;;;;;;4.07;1.58;;;;;;;22.48;45.08;95995.72;5113048;28;20473;-63
2022/05/22 05:22:26;;;;;;;7.28;1.40;;;;;;;22.41;39.93;95992.81;5113100;28;20031;-64
2022/05/22 05:24:51;;;;;;;6.93;1.48;;;;;;;22.38;39.77;95992.25;5116407;28;20034;-61
2022/05/22 05:27:17;;;;;;;4.13;1.80;;;;;;;22.44;45.31;95997.84;5116814;28;20098;-61
2022/05/22 05:29:43;;;;;;;4.97;1.70;;;;;;;22.56;45.65;95997.66;5116700;28;20032;-64
2022/05/22 05:32:08;;;;;;;2.03;1.27;;;;;;;22.62;41.46;95991.78;5116762;28;20477;-63
2022/05/22 05:34:34;;;;;;;5.38;1.17;;;;;;;22.65;38.79;95995.97;5116643;28;20023;-63
2022/05/22 05:37:00;;;;;;;1.70;1.30;;;;;;;23.18;46.66;95996.22;5116716;28;20016;-61
2022/05/22 05:39:27;;;;;;;3.47;1.25;;;;;;;23.94;37.51;95999.44;5116548;28;20019;-61
2022/05/22 05:41:55;;;;;;;7.00;1.65;;;;;;;24.39;34.99;96003.91;5116479;28;20028;-61
2022/05/22 05:44:21;;;;;;;6.18;1.30;;;;;;;24.43;33.90;96006.09;5116601;28;20077;-60
2022/05/22 05:46:46;;;;;;;3.85;1.10;;;;;;;24.61;34.11;96002.50;5116347;28;20016;-61
2022/05/22 05:49:13;;;;;;;3.75;1.20;;;;;;;24.55;32.47;96009.34;5116380;28;20023;-60
2022/05/22 05:51:39;;;;;;;5.75;1.15;;;;;;;24.39;33.25;96019.94;5116421;28;20020;-61
2022/05/22 05:54:05;;;;;;;4.10;1.63;;;;;;;24.80;32.07;96014.78;5116422;28;20031;-61
2022/05/22 05:56:31;;;;;;;3.38;1.23;;;;;;;25.39;31.83;96007.81;5116375;28;20031;-61
2022/05/22 05:58:57;;;;;;;4.15;1.15;;;;;;;25.93;31.22;96011.88;5116195;28;20027;-61
2022/05/22 06:01:24;;;;;;;12.25;1.75;;;;;;;26.06;28.67;96000.66;5116160;28;20024;-60
2022/05/22 06:03:51;;;;;;;7.82;1.10;;;;;;;25.99;30.05;96005.00;5116139;28;20023;-60
2022/05/22 06:06:18;;;;;;;9.52;1.83;;;;;;;26.37;29.77;95994.59;5116068;28;20531;-62
2022/05/22 06:08:47;;;;;;;2.63;1.23;;;;;;;26.72;28.29;96006.88;5116129;28;20473;-60
2022/05/22 06:11:12;;;;;;;8.48;1.42;;;;;;;26.78;27.16;96006.19;5115953;28;20373;-61
2022/05/22 06:13:40;;;;;;;7.57;1.20;;;;;;;26.88;28.38;96012.16;5115907;28;20088;-61
2022/05/22 06:16:07;;;;;;;5.68;1.13;;;;;;;27.11;27.97;96005.22;5115906;28;20024;-62
2022/05/22 06:18:34;;;;;;;6.28;1.52;;;;;;;27.62;27.31;96001.22;5115935;28;20016;-60
2022/05/22 06:21:08;;;;;;;6.47;1.08;;;;;;;27.93;26.64;96002.19;5115854;28;20024;-61
2022/05/22 06:23:34;;;;;;;3.63;1.08;;;;;;;28.19;27.30;96006.28;5115956;28;20039;-60
2022/05/22 06:26:00;;;;;;;5.53;1.10;;;;;;;28.24;25.01;95995.84;5115360;28;20035;-61
2022/05/22 06:28:25;;;;;;;2.30;1.60;;;;;;;28.33;25.50;95991.25;5115648;28;20037;-59
2022/05/22 06:30:52;;;;;;;4.18;1.52;;;;;;;28.42;24.51;95997.38;5115414;28;20047;-60
2022/05/22 06:33:20;;;;;;;3.08;0.73;;;;;;;28.43;24.84;95997.19;5115724;27;20047;-61
2022/05/22 06:35:46;;;;;;;6.18;1.30;;;;;;;28.41;25.08;95999.22;5115250;28;20028;-59
2022/05/22 06:39:49;;;;;;;4.32;1.17;;;;;;;28.34;25.05;95995.59;5115502;28;20076;-60
2022/05/22 06:41:04;;;;;;;4.85;1.08;;;;;;;28.23;26.42;95986.94;5114323;28;20035;-61
2022/05/22 06:43:30;;;;;;;5.72;1.10;;;;;;;28.62;24.83;95990.41;5115489;28;20623;-60
2022/05/22 06:45:59;;;;;;;2.88;1.10;;;;;;;29.00;25.22;95986.78;5115323;28;20020;-60
2022/05/22 06:48:28;;;;;;;2.95;1.10;;;;;;;29.24;24.67;95984.78;5115146;28;20027;-60
2022/05/22 06:50:54;;;;;;;3.47;1.20;;;;;;;29.02;25.91;95970.44;5115466;28;20030;-59
2022/05/22 06:53:20;;;;;;;5.93;1.13;;;;;;;28.98;25.06;95982.59;5115351;28;20106;-60
2022/05/22 06:55:47;;;;;;;3.28;0.93;;;;;;;29.01;25.56;95983.06;5115147;28;20043;-62
2022/05/22 06:58:13;;;;;;;3.92;1.00;;;;;;;28.88;23.74;95974.81;5115048;28;20468;-61
2022/05/22 07:00:39;;;;;;;4.55;0.95;;;;;;;28.91;24.17;95973.59;5114986;28;20032;-60
2022/05/22 07:03:05;;;;;;;4.00;1.20;;;;;;;28.50;22.73;95971.22;5115058;28;20020;-61
2022/05/22 07:05:33;;;;;;;2.50;0.95;;;;;;;28.70;23.37;95977.88;5114949;27;20393;-61
2022/05/22 07:07:59;;;;;;;4.70;1.30;;;;;;;28.65;24.33;95969.56;5114932;28;20388;-61
2022/05/22 07:13:10;;;;;;;3.22;1.00;;;;;;;28.54;23.77;95974.38;5115154;28;20038;-59
2022/05/22 07:15:36;;;;;;;3.40;1.00;;;;;;;28.72;23.45;95978.53;5114675;28;20473;-60
2022/05/22 07:18:02;;;;;;;5.00;1.17;;;;;;;28.79;23.46;95979.47;5114531;28;20051;-59
2022/05/22 07:20:29;;;;;;;11.40;1.10;;;;;;;29.06;24.25;95978.97;5114576;28;20019;-61
2022/05/22 07:22:55;;;;;;;6.25;1.25;;;;;;;29.52;23.66;95970.56;5114477;28;20457;-61
2022/05/22 07:25:22;;;;;;;1.92;1.10;;;;;;;29.14;23.65;95968.09;5114516;28;20031;-61
2022/05/22 07:27:48;;;;;;;6.45;0.98;;;;;;;28.94;23.90;95965.16;5114634;28;20023;-61
2022/05/22 07:30:14;;;;;;;7.00;1.00;;;;;;;28.61;23.84;95961.84;5114231;28;20059;-61
2022/05/22 07:32:39;;;;;;;6.72;1.25;;;;;;;28.30;24.25;95964.72;5114429;28;20022;-61
2022/05/22 07:35:06;;;;;;;5.45;0.93;;;;;;;28.13;25.34;95951.44;5114397;28;20040;-62
2022/05/22 07:37:32;;;;;;;2.83;0.98;;;;;;;27.95;25.80;95944.56;5114189;28;20031;-61
2022/05/22 07:39:58;;;;;;;6.53;1.40;;;;;;;27.68;25.75;95940.59;5114205;28;20031;-61
2022/05/22 07:42:24;;;;;;;8.00;1.67;;;;;;;27.45;25.21;95938.75;5114328;28;20051;-61
2022/05/22 07:44:50;;;;;;;1.38;0.93;;;;;;;27.18;27.11;95933.72;5114262;28;20453;-60
2022/05/22 07:47:16;;;;;;;1.45;0.98;;;;;;;27.09;26.62;95937.50;5113676;28;20024;-61
2022/05/22 07:52:26;;;;;;;10.60;1.10;;;;;;;27.23;26.00;95933.19;5114415;28;20081;-60
2022/05/22 07:54:53;;;;;;;3.75;1.10;;;;;;;27.47;26.26;95939.41;5113969;28;20073;-62
2022/05/22 07:57:19;;;;;;;4.20;0.93;;;;;;;27.33;27.34;95941.03;5114048;28;20028;-64
2022/05/22 07:59:44;;;;;;;3.22;1.45;;;;;;;27.11;27.02;95938.97;5113935;28;20047;-61
2022/05/22 08:02:13;;;;;;;1.33;0.90;;;;;;;27.28;27.59;95938.88;5113800;28;20066;-62
2022/05/22 08:04:40;;;;;;;7.30;1.13;;;;;;;27.39;27.29;95934.91;5114115;28;20420;-62
2022/05/22 08:07:06;;;;;;;7.10;1.63;;;;;;;27.31;27.29;95937.69;5113781;28;20386;-60
2022/05/22 08:09:32;;;;;;;3.47;1.20;;;;;;;27.14;26.00;95940.47;5113854;28;20031;-60
2022/05/22 08:11:58;;;;;;;2.70;1.20;;;;;;;27.27;26.07;95937.19;5113714;28;20024;-62
2022/05/22 08:14:24;;;;;;;2.78;1.10;;;;;;;27.61;27.43;95938.63;5113839;28;20031;-60
2022/05/22 08:16:52;;;;;;;5.90;1.13;;;;;;;27.75;25.83;95939.69;5113570;28;20023;-60
2022/05/22 08:19:18;;;;;;;3.00;1.35;;;;;;;27.75;26.51;95955.81;5113806;28;20034;-63
2022/05/22 08:21:45;;;;;;;5.30;1.00;;;;;;;27.42;27.36;95945.31;5113580;28;20446;-61
2022/05/22 08:24:12;;;;;;;3.08;1.58;;;;;;;27.15;27.80;95946.69;5113596;28;20023;-60
2022/05/22 08:26:38;;;;;;;6.40;1.13;;;;;;;27.06;29.12;95948.59;5112407;28;20024;-61
2022/05/22 08:29:04;;;;;;;1.38;0.90;;;;;;;26.96;27.54;95948.75;5113397;28;20027;-62
2022/05/22 08:31:29;;;;;;;3.53;1.20;;;;;;;26.77;28.10;95948.19;5113420;28;20059;-60
2022/05/22 08:33:55;;;;;;;3.50;1.20;;;;;;;26.85;27.82;95937.41;5113563;28;20039;-62
2022/05/22 08:36:21;;;;;;;3.10;1.35;;;;;;;26.61;28.29;95944.56;5112224;28;20397;-61
2022/05/22 08:38:47;;;;;;;3.72;1.25;;;;;;;26.51;27.08;95945.81;5113559;28;20457;-63
2022/05/22 08:41:30;;;;;;;3.75;1.30;;;;;;;26.32;29.40;95947.88;5113395;28;20035;-61
2022/05/22 08:44:08;;;;;;;2.72;1.23;;;;;;;26.29;29.24;95940.13;5113528;28;20078;-62
2022/05/22 08:46:47;;;;;;;4.07;1.20;;;;;;;26.12;29.71;95942.84;5113549;28;20027;-62
2022/05/22 08:49:46;;;;;;;1.73;1.15;;;;;;;25.85;31.59;95944.91;5113489;28;20019;-62
2022/05/22 08:52:17;;;;;;;4.85;1.33;;;;;;;25.74;32.29;95946.13;5113370;28;20451;-60
2022/05/22 08:54:55;;;;;;;3.90;1.25;;;;;;;25.76;31.65;95936.06;5113393;28;20473;-61
2022/05/22 09:00:14;;;;;;;3.25;1.20;;;;;;;25.77;31.00;95940.44;5117816;28;20047;-60
2022/05/22 09:02:59;;;;;;;7.32;1.20;;;;;;;25.68;28.99;95928.03;5117495;28;20022;-62
2022/05/22 09:05:30;;;;;;;5.57;1.17;;;;;;;25.73;30.77;95929.22;5117261;28;20030;-62
2022/05/22 09:08:07;;;;;;;;;;;;;;;25.72;33.10;95930.22;5117690;27;20106;-61
2022/05/22 09:10:51;;;;;;;4.30;1.40;;;;;;;25.68;31.34;95920.84;5117246;28;19912;-60
2022/05/22 09:13:43;;;;;;;3.65;1.35;;;;;;;25.81;31.20;95920.34;5117288;28;20516;-62
2022/05/22 09:16:16;;;;;;;5.35;1.00;;;;;;;25.99;29.44;95924.66;5117051;28;20043;-61
2022/05/22 09:18:58;;;;;;;3.25;1.05;;;;;;;25.98;31.45;95918.44;5117070;28;20031;-61
2022/05/22 09:21:36;;;;;;;2.45;1.20;;;;;;;26.02;30.19;95921.63;5117141;28;20038;-62
2022/05/22 09:24:08;;;;;;;2.17;1.13;;;;;;;26.23;32.47;95921.06;5117010;28;20027;-61
2022/05/22 09:26:47;;;;;;;3.63;1.17;;;;;;;26.28;31.79;95914.34;5115673;28;20380;-61
2022/05/22 09:29:25;;;;;;;2.17;1.25;;;;;;;26.25;31.80;95911.00;5116838;27;20032;-61
2022/05/22 09:31:57;;;;;;;2.75;1.27;;;;;;;26.14;30.59;95913.22;5116616;28;20050;-62
2022/05/22 09:34:41;;;;;;;2.67;1.20;;;;;;;25.96;30.14;95911.59;5116718;28;20023;-62
2022/05/22 09:37:29;;;;;;;2.72;1.00;;;;;;;25.93;29.22;95907.41;5116763;28;20100;-60
2022/05/22 09:40:25;;;;;;;6.38;1.30;;;;;;;25.98;30.14;95910.41;5116656;28;20020;-62
2022/05/22 09:43:06;;;;;;;2.88;1.25;;;;;;;25.78;29.10;95911.78;5116604;28;20039;-63
2022/05/22 09:45:38;;;;;;;4.13;1.23;;;;;;;25.82;29.01;95905.09;5116665;28;20514;-60
2022/05/22 09:48:17;;;;;;;5.53;1.65;;;;;;;25.87;29.62;95918.81;5116494;28;20020;-61
2022/05/22 09:50:58;;;;;;;2.50;1.00;;;;;;;26.01;30.21;95905.72;5115334;28;20442;-63
2022/05/22 09:53:40;;;;;;;4.75;1.52;;;;;;;26.01;30.60;95898.53;5116368;28;20043;-62
2022/05/22 09:56:29;;;;;;;5.78;1.00;;;;;;;25.93;29.31;95911.94;5116199;28;20111;-61
2022/05/22 09:59:32;;;;;;;4.88;1.27;;;;;;;25.89;31.40;95913.28;5116413;27;20028;-62
2022/05/22 10:02:04;;;;;;;6.10;1.17;;;;;;;25.63;30.07;95917.00;5116121;28;20114;-60
2022/05/22 10:04:37;;;;;;;4.45;1.25;;;;;;;25.52;29.00;95910.13;5115018;28;20032;-61
2022/05/22 10:07:36;;;;;;;2.95;1.30;;;;;;;25.58;29.71;95904.06;5115935;28;20024;-62
2022/05/22 10:10:14;;;;;;;1.45;1.17;;;;;;;25.57;30.61;95895.22;5115561;28;20076;-63
2022/05/22 10:13:10;;;;;;;1.30;1.20;;;;;;;25.54;29.39;95900.91;5116132;28;20396;-61
2022/05/22 10:16:20;;;;;;;3.60;1.58;;;;;;;25.33;31.84;95899.59;5116051;28;20032;-63
2022/05/22 10:19:00;;;;;;;2.20;1.35;;;;;;;25.28;30.01;95896.56;5053086;28;20029;-62
2022/05/22 10:21:33;;;;;;;2.65;1.30;;;;;;;25.26;29.93;95897.75;5109466;28;20472;-60
2022/05/22 10:24:19;;;;;;;2.67;1.35;;;;;;;25.21;32.14;95900.91;5115977;28;20038;-60
2022/05/22 10:27:01;;;;;;;2.92;1.48;;;;;;;25.28;32.98;95898.41;5115749;28;20028;-60
2022/05/22 10:29:41;;;;;;;2.38;1.33;;;;;;;25.28;33.82;95903.78;5115690;28;20033;-61
2022/05/22 10:32:14;;;;;;;3.05;1.40;;;;;;;25.35;33.60;95894.06;5115626;28;20569;-62
2022/05/22 10:34:49;;;;;;;6.57;1.40;;;;;;;25.46;32.92;95895.56;5115601;28;20035;-60
2022/05/22 10:37:28;;;;;;;2.35;1.10;;;;;;;25.89;34.59;95894.53;5115571;28;20484;-61
2022/05/22 10:39:54;;;;;;;4.53;1.45;;;;;;;26.25;31.42;95883.38;5115723;28;20084;-61
2022/05/22 10:42:47;;;;;;;7.30;1.33;;;;;;;26.68;30.35;95883.06;5115350;28;20532;-61
2022/05/22 10:45:38;;;;;;;5.03;1.30;;;;;;;27.28;28.60;95884.34;5115383;27;20020;-62
2022/05/22 10:48:19;;;;;;;5.55;1.40;;;;;;;27.79;29.27;95883.78;5115360;28;20040;-61
2022/05/22 10:51:06;;;;;;;3.88;1.63;;;;;;;28.28;27.18;95867.25;5096382;28;20051;-61
2022/05/22 10:53:32;;;;;;;4.55;1.48;;;;;;;28.44;26.29;95864.41;5115433;28;20058;-61
2022/05/22 10:56:18;;;;;;;2.67;1.38;;;;;;;28.88;25.17;95859.09;5115125;28;20351;-60
2022/05/22 10:59:05;;;;;;;4.35;1.40;;;;;;;29.13;25.57;95861.44;5113933;28;20481;-61
2022/05/22 11:01:39;;;;;;;1.98;1.23;;;;;;;29.38;25.86;95856.50;5115267;28;20377;-62
2022/05/22 11:04:13;;;;;;;2.15;1.27;;;;;;;29.63;26.80;95848.03;5115076;28;20024;-62
2022/05/22 11:06:55;;;;;;;2.65;1.48;;;;;;;29.95;25.79;95849.47;5114994;28;20048;-63
2022/05/22 11:09:26;;;;;;;2.55;1.20;;;;;;;30.15;27.16;95852.25;5114998;28;20023;-61
2022/05/22 11:12:08;;;;;;;3.70;1.48;;;;;;;30.23;25.63;95840.50;5114745;28;20366;-63
2022/05/22 11:14:35;;;;;;;2.33;1.33;;;;;;;30.37;26.16;95849.50;5114915;28;20019;-62
2022/05/22 11:17:19;;;;;;;1.42;0.93;;;;;;;30.57;25.76;95840.63;5114740;28;20084;-61
2022/05/22 11:19:48;;;;;;;2.50;1.23;;;;;;;30.50;24.02;95838.78;5114556;28;20015;-60
2022/05/22 11:22:30;;;;;;;4.18;1.50;;;;;;;30.59;24.09;95822.41;5113632;28;20051;-61
2022/05/22 11:24:56;;;;;;;3.17;1.30;;;;;;;30.75;24.06;95824.72;5114790;28;20032;-63
2022/05/22 11:27:24;;;;;;;3.97;1.23;;;;;;;30.70;26.05;95831.78;5114518;28;20118;-63
2022/05/22 11:29:53;;;;;;;2.17;1.50;;;;;;;30.37;23.31;95811.75;5114215;28;20028;-62
2022/05/22 11:32:28;;;;;;;3.03;1.20;;;;;;;30.19;24.37;95825.78;5114486;28;20489;-61
2022/05/22 11:35:03;;;;;;;3.42;1.50;;;;;;;30.03;24.75;95819.66;5114417;28;20042;-60
2022/05/22 11:37:48;;;;;;;3.13;1.20;;;;;;;29.82;24.54;95824.09;5114357;28;20035;-61
2022/05/22 11:40:19;;;;;;;3.63;1.10;;;;;;;29.59;23.75;95821.69;5114322;28;20073;-63
2022/05/22 11:42:45;;;;;;;2.30;1.20;;;;;;;29.38;26.56;95821.47;5114324;28;20028;-61
2022/05/22 11:45:14;;;;;;;2.53;1.23;;;;;;;29.13;26.22;95821.91;5114218;28;20503;-62
2022/05/22 11:48:06;;;;;;;2.72;1.40;;;;;;;28.99;26.81;95822.81;5114188;28;20036;-63
2022/05/22 11:50:58;;;;;;;3.50;1.35;;;;;;;29.00;26.19;95819.94;5114180;28;20453;-61
2022/05/22 11:53:44;;;;;;;4.45;1.50;;;;;;;28.69;28.73;95796.84;5084898;28;20393;-61
2022/05/22 11:56:30;;;;;;;4.00;1.42;;;;;;;28.69;27.57;95798.69;5114349;28;20023;-62
2022/05/22 11:59:32;;;;;;;4.82;1.20;;;;;;;28.50;27.99;95799.13;5114056;28;20035;-61
2022/05/22 12:02:10;;;;;;;4.90;1.80;;;;;;;28.48;26.41;95803.03;5114007;28;20035;-61